createdAt,value
2017-09-19T00:02:00.799Z,14.70
2017-09-19T00:04:27.844Z,14.47
2017-09-19T00:06:54.569Z,15.00
2017-09-19T00:09:21.290Z,15.63
2017-09-19T00:11:48.039Z,15.27
2017-09-19T00:14:14.765Z,15.27
2017-09-19T00:16:41.496Z,15.30
2017-09-19T00:19:08.271Z,15.73
2017-09-19T00:21:35.046Z,16.00
2017-09-19T00:24:01.784Z,17.37
2017-09-19T00:26:28.606Z,16.30
2017-09-19T00:28:55.434Z,15.27
2017-09-19T00:31:22.361Z,15.93
2017-09-19T00:33:49.174Z,17.13
2017-09-19T00:36:15.938Z,15.50
2017-09-19T00:38:42.689Z,14.63
2017-09-19T00:41:09.539Z,15.30
2017-09-19T00:43:36.314Z,17.27
2017-09-19T00:46:03.056Z,15.90
2017-09-19T00:48:29.837Z,17.10
2017-09-19T00:50:56.550Z,16.67
2017-09-19T00:53:23.315Z,16.87
2017-09-19T00:55:50.095Z,17.90
2017-09-19T00:58:16.851Z,18.17
2017-09-19T01:00:43.579Z,18.67
2017-09-19T01:03:10.942Z,17.67
2017-09-19T01:05:38.185Z,18.37
2017-09-19T01:08:04.955Z,18.27
2017-09-19T01:10:31.719Z,17.53
2017-09-19T01:12:58.504Z,15.40
2017-09-19T01:15:25.278Z,18.00
2017-09-19T01:17:52.842Z,18.10
2017-09-19T01:20:19.603Z,17.37
2017-09-19T01:22:46.426Z,19.07
2017-09-19T01:25:13.258Z,18.30
2017-09-19T01:27:40.637Z,17.47
2017-09-19T01:30:07.388Z,17.20
2017-09-19T01:32:34.144Z,17.00
2017-09-19T01:35:00.900Z,16.70
2017-09-19T01:37:27.646Z,17.77
2017-09-19T01:39:54.428Z,16.93
2017-09-19T01:42:21.387Z,17.60
2017-09-19T01:44:48.264Z,21.20
2017-09-19T01:47:15.015Z,21.00
2017-09-19T01:49:41.794Z,18.33
2017-09-19T01:52:08.512Z,17.50
2017-09-19T01:54:35.305Z,16.67
2017-09-19T01:57:02.074Z,16.80
2017-09-19T01:59:28.786Z,18.97
2017-09-19T02:01:55.590Z,18.10
2017-09-19T02:04:22.399Z,17.50
2017-09-19T02:06:49.162Z,19.17
2017-09-19T02:09:16.262Z,17.00
2017-09-19T02:11:43.036Z,16.43
2017-09-19T02:14:09.795Z,17.10
2017-09-19T02:16:36.603Z,17.90
2017-09-19T02:19:03.385Z,18.90
2017-09-19T02:21:30.160Z,16.77
2017-09-19T02:23:56.962Z,17.70
2017-09-19T02:26:23.738Z,18.77
2017-09-19T02:28:50.530Z,18.50
2017-09-19T02:31:17.330Z,19.53
2017-09-19T02:33:44.110Z,19.40
2017-09-19T02:36:11.037Z,18.67
2017-09-19T02:38:37.843Z,17.73
2017-09-19T02:41:04.822Z,17.73
2017-09-19T02:43:31.624Z,18.57
2017-09-19T02:45:58.409Z,19.80
2017-09-19T02:48:25.182Z,20.43
2017-09-19T02:50:51.925Z,19.70
2017-09-19T02:53:18.741Z,18.37
2017-09-19T02:55:45.523Z,17.80
2017-09-19T02:58:12.298Z,19.47
2017-09-19T03:00:39.090Z,19.13
2017-09-19T03:03:05.862Z,19.20
2017-09-19T03:05:32.631Z,20.03
2017-09-19T03:07:59.645Z,19.57
2017-09-19T03:10:26.391Z,18.33
2017-09-19T03:12:53.182Z,18.80
2017-09-19T03:15:19.971Z,17.97
2017-09-19T03:17:46.721Z,20.40
2017-09-19T03:20:13.482Z,19.70
2017-09-19T03:22:40.291Z,18.93
2017-09-19T03:25:07.058Z,18.90
2017-09-19T03:27:33.874Z,20.00
2017-09-19T03:30:00.710Z,19.17
2017-09-19T03:32:27.490Z,20.87
2017-09-19T03:34:54.235Z,23.60
2017-09-19T03:37:21.020Z,20.70
2017-09-19T03:39:47.786Z,19.57
2017-09-19T03:42:14.558Z,20.53
2017-09-19T03:44:41.359Z,21.57
2017-09-19T03:47:08.754Z,21.30
2017-09-19T03:49:35.534Z,22.97
2017-09-19T03:52:02.611Z,23.67
2017-09-19T03:54:29.370Z,23.10
2017-09-19T03:56:56.139Z,21.87
2017-09-19T03:59:22.931Z,22.40
2017-09-19T04:01:49.701Z,23.00
2017-09-19T04:04:16.472Z,23.27
2017-09-19T04:06:43.280Z,23.37
2017-09-19T04:09:10.047Z,22.53
2017-09-19T04:11:36.814Z,22.50
2017-09-19T04:14:03.602Z,24.10
2017-09-19T04:16:30.372Z,23.30
2017-09-19T04:18:57.128Z,21.90
2017-09-19T04:21:23.939Z,22.57
2017-09-19T04:23:50.724Z,22.00
2017-09-19T04:26:18.115Z,21.83
2017-09-19T04:28:44.943Z,21.03
2017-09-19T04:31:11.698Z,21.30
2017-09-19T04:33:38.810Z,24.07
2017-09-19T04:36:05.622Z,21.90
2017-09-19T04:38:32.387Z,21.80
2017-09-19T04:40:59.223Z,23.30
2017-09-19T04:43:27.058Z,24.60
2017-09-19T04:45:53.834Z,24.53
2017-09-19T04:48:20.610Z,21.10
2017-09-19T04:50:47.418Z,23.57
2017-09-19T04:53:14.188Z,24.10
2017-09-19T04:55:40.971Z,24.10
2017-09-19T04:58:07.775Z,22.50
2017-09-19T05:00:34.552Z,26.63
2017-09-19T05:03:01.315Z,26.00
2017-09-19T05:05:28.144Z,24.07
2017-09-19T05:07:54.898Z,25.00
2017-09-19T05:10:21.687Z,27.27
2017-09-19T05:12:48.485Z,24.40
2017-09-19T05:15:15.270Z,27.57
2017-09-19T05:17:42.038Z,26.47
2017-09-19T05:20:08.820Z,26.83
2017-09-19T05:22:35.607Z,24.30
2017-09-19T05:25:02.366Z,25.50
2017-09-19T05:27:29.169Z,24.23
2017-09-19T05:29:55.955Z,23.80
2017-09-19T05:32:22.715Z,24.43
2017-09-19T05:34:49.630Z,23.83
2017-09-19T05:37:16.479Z,24.60
2017-09-19T05:39:43.310Z,25.80
2017-09-19T05:42:10.132Z,24.67
2017-09-19T05:44:36.913Z,24.93
2017-09-19T05:47:03.690Z,23.70
2017-09-19T05:49:30.475Z,24.53
2017-09-19T05:51:57.271Z,24.70
2017-09-19T05:54:24.034Z,27.47
2017-09-19T05:56:50.838Z,24.40
2017-09-19T05:59:17.588Z,26.53
2017-09-19T06:01:44.361Z,26.27
2017-09-19T06:04:11.157Z,24.73
2017-09-19T06:06:37.922Z,25.47
2017-09-19T06:09:10.575Z,25.00
2017-09-19T06:11:37.379Z,24.63
2017-09-19T06:14:04.127Z,24.53
2017-09-19T06:16:30.896Z,24.30
2017-09-19T06:18:57.712Z,22.60
2017-09-19T06:21:24.770Z,24.50
2017-09-19T06:23:52.021Z,22.33
2017-09-19T06:26:19.178Z,24.17
2017-09-19T06:28:45.958Z,24.73
2017-09-19T06:31:12.719Z,23.77
2017-09-19T06:33:39.555Z,23.40
2017-09-19T06:36:06.300Z,38.63
2017-09-19T06:38:33.805Z,24.77
2017-09-19T06:41:00.601Z,26.20
2017-09-19T06:43:27.375Z,25.50
2017-09-19T06:45:54.131Z,22.87
2017-09-19T06:48:21.124Z,22.57
2017-09-19T06:50:47.888Z,25.60
2017-09-19T06:53:14.694Z,23.80
2017-09-19T06:55:41.501Z,23.80
2017-09-19T06:58:08.441Z,24.23
2017-09-19T07:00:35.261Z,22.87
2017-09-19T07:03:02.363Z,23.97
2017-09-19T07:05:29.116Z,22.27
2017-09-19T07:07:55.890Z,22.27
2017-09-19T07:10:22.711Z,23.50
2017-09-19T07:12:49.464Z,24.40
2017-09-19T07:15:16.720Z,23.53
2017-09-19T07:17:43.496Z,23.00
2017-09-19T07:20:10.251Z,24.00
2017-09-19T07:22:37.018Z,24.00
2017-09-19T07:25:03.807Z,23.50
2017-09-19T07:27:30.573Z,22.80
2017-09-19T07:29:57.361Z,20.97
2017-09-19T07:32:24.167Z,23.27
2017-09-19T07:34:50.916Z,22.17
2017-09-19T07:37:17.683Z,21.17
2017-09-19T07:39:44.482Z,22.10
2017-09-19T07:42:11.250Z,21.87
2017-09-19T07:44:38.001Z,21.03
2017-09-19T07:47:04.806Z,21.50
2017-09-19T07:49:31.576Z,21.17
2017-09-19T07:51:58.351Z,21.33
2017-09-19T07:54:25.159Z,20.47
2017-09-19T07:56:51.908Z,26.13
2017-09-19T07:59:18.735Z,20.20
2017-09-19T08:01:45.542Z,21.33
2017-09-19T08:04:12.305Z,19.03
2017-09-19T08:06:39.056Z,20.00
2017-09-19T08:09:05.868Z,18.07
2017-09-19T08:11:32.635Z,18.37
2017-09-19T08:14:00.125Z,18.03
2017-09-19T08:16:26.919Z,19.50
2017-09-19T08:18:53.672Z,18.43
2017-09-19T08:21:20.425Z,17.30
2017-09-19T08:23:47.230Z,18.83
2017-09-19T08:26:13.979Z,17.70
2017-09-19T08:28:40.742Z,16.90
2017-09-19T08:31:07.531Z,16.93
2017-09-19T08:33:34.477Z,16.70
2017-09-19T08:36:01.254Z,17.13
2017-09-19T08:38:28.036Z,18.70
2017-09-19T08:40:54.792Z,16.50
2017-09-19T08:43:21.539Z,17.73
2017-09-19T08:45:48.338Z,16.90
2017-09-19T08:48:15.109Z,17.50
2017-09-19T08:50:41.861Z,16.30
2017-09-19T08:53:08.663Z,17.77
2017-09-19T08:55:36.211Z,17.70
2017-09-19T08:58:02.975Z,17.77
2017-09-19T09:00:29.763Z,16.30
2017-09-19T09:02:56.558Z,19.00
2017-09-19T09:05:23.334Z,16.67
2017-09-19T09:07:50.141Z,16.70
2017-09-19T09:10:17.237Z,16.67
2017-09-19T09:12:44.011Z,16.67
2017-09-19T09:15:10.820Z,14.47
2017-09-19T09:17:37.598Z,16.90
2017-09-19T09:20:04.380Z,15.33
2017-09-19T09:22:31.307Z,15.30
2017-09-19T09:24:58.056Z,15.83
2017-09-19T09:27:24.822Z,16.77
2017-09-19T09:29:51.609Z,14.97
2017-09-19T09:32:18.371Z,13.57
2017-09-19T09:34:45.115Z,13.33
2017-09-19T09:37:11.911Z,12.97
2017-09-19T09:39:38.723Z,13.43
2017-09-19T09:42:05.834Z,12.70
2017-09-19T09:44:33.354Z,12.70
2017-09-19T09:47:00.100Z,12.80
2017-09-19T09:49:26.847Z,10.73
2017-09-19T09:51:53.664Z,12.07
2017-09-19T09:54:20.440Z,13.17
2017-09-19T09:56:47.246Z,12.03
2017-09-19T09:59:14.038Z,12.60
2017-09-19T10:01:40.822Z,10.37
2017-09-19T10:04:07.629Z,10.67
2017-09-19T10:06:34.431Z,10.40
2017-09-19T10:09:01.182Z,9.87
2017-09-19T10:11:27.921Z,8.90
2017-09-19T10:13:54.719Z,9.07
2017-09-19T10:16:21.504Z,8.57
2017-09-19T10:18:49.138Z,7.30
2017-09-19T10:21:15.918Z,7.90
2017-09-19T10:23:42.719Z,9.03
2017-09-19T10:26:09.476Z,10.60
2017-09-19T10:28:36.263Z,8.27
2017-09-19T10:31:03.026Z,7.60
2017-09-19T10:33:29.763Z,7.77
2017-09-19T10:35:56.598Z,8.40
2017-09-19T10:38:23.351Z,6.20
2017-09-19T10:40:50.118Z,7.33
2017-09-19T10:43:16.911Z,7.13
2017-09-19T10:45:43.667Z,7.37
2017-09-19T10:48:10.429Z,7.70
2017-09-19T10:50:37.231Z,6.80
2017-09-19T10:53:03.999Z,6.10
2017-09-19T10:55:30.757Z,7.40
2017-09-19T10:57:57.563Z,4.00
2017-09-19T11:00:24.327Z,5.77
2017-09-19T11:02:51.117Z,6.90
2017-09-19T11:05:17.915Z,6.57
2017-09-19T11:07:44.709Z,6.53
2017-09-19T11:10:11.759Z,5.90
2017-09-19T11:12:38.548Z,6.83
2017-09-19T11:15:05.375Z,6.30
2017-09-19T11:17:32.407Z,6.83
2017-09-19T11:19:59.210Z,6.80
2017-09-19T11:22:25.978Z,7.50
2017-09-19T11:24:52.767Z,6.87
2017-09-19T11:27:19.542Z,7.67
2017-09-19T11:29:46.325Z,7.50
2017-09-19T11:32:13.086Z,7.87
2017-09-19T11:34:39.881Z,7.37
2017-09-19T11:37:07.250Z,7.33
2017-09-19T11:39:33.995Z,8.00
2017-09-19T11:42:00.801Z,7.10
2017-09-19T11:44:27.838Z,7.20
2017-09-19T11:46:54.588Z,8.57
2017-09-19T11:49:21.377Z,9.70
2017-09-19T11:51:48.150Z,10.20
2017-09-19T11:54:14.923Z,10.80
2017-09-19T11:56:41.730Z,10.40
2017-09-19T11:59:08.498Z,9.53
2017-09-19T12:01:35.243Z,8.87
2017-09-19T12:04:02.028Z,8.00
2017-09-19T12:06:28.764Z,6.40
2017-09-19T12:08:55.514Z,7.07
2017-09-19T12:11:22.309Z,6.93
2017-09-19T12:13:49.085Z,7.20
2017-09-19T12:16:15.963Z,7.50
2017-09-19T12:18:42.762Z,6.70
2017-09-19T12:21:09.531Z,6.30
2017-09-19T12:23:36.287Z,5.73
2017-09-19T12:26:03.433Z,5.93
2017-09-19T12:28:30.195Z,4.43
2017-09-19T12:30:56.937Z,4.00
2017-09-19T12:33:23.750Z,3.90
2017-09-19T12:35:50.497Z,4.60
2017-09-19T12:38:17.236Z,3.93
2017-09-19T12:40:44.008Z,3.90
2017-09-19T12:43:10.749Z,2.53
2017-09-19T12:45:37.526Z,2.70
2017-09-19T12:48:04.306Z,2.80
2017-09-19T12:50:31.074Z,2.70
2017-09-19T12:52:57.870Z,2.60
2017-09-19T12:55:24.650Z,2.30
2017-09-19T12:57:51.406Z,2.40
2017-09-19T13:00:18.190Z,2.37
2017-09-19T13:02:44.981Z,2.53
2017-09-19T13:05:11.742Z,3.03
2017-09-19T13:07:38.499Z,2.00
2017-09-19T13:10:05.294Z,2.10
2017-09-19T13:12:32.044Z,1.97
2017-09-19T13:14:58.785Z,2.50
2017-09-19T13:17:25.577Z,2.30
2017-09-19T13:19:52.323Z,2.20
2017-09-19T13:22:19.090Z,2.03
2017-09-19T13:24:45.892Z,2.57
2017-09-19T13:27:12.627Z,2.30
2017-09-19T13:29:39.381Z,2.17
2017-09-19T13:32:11.998Z,2.20
2017-09-19T13:34:38.874Z,1.80
2017-09-19T13:37:05.650Z,2.40
2017-09-19T13:39:32.419Z,1.90
2017-09-19T13:41:59.174Z,1.67
2017-09-19T13:44:25.957Z,1.70
2017-09-19T13:46:52.760Z,2.07
2017-09-19T13:49:19.508Z,2.70
2017-09-19T13:51:46.285Z,1.90
2017-09-19T13:54:13.127Z,2.23
2017-09-19T13:56:39.886Z,1.90
2017-09-19T13:59:06.619Z,1.77
2017-09-19T14:01:33.410Z,1.43
2017-09-19T14:04:00.494Z,1.60
2017-09-19T14:06:27.306Z,1.33
2017-09-19T14:08:54.125Z,1.20
2017-09-19T14:11:20.861Z,1.40
2017-09-19T14:13:47.634Z,1.10
2017-09-19T14:16:14.412Z,1.57
2017-09-19T14:18:41.169Z,1.77
2017-09-19T14:21:08.066Z,1.60
2017-09-19T14:23:34.837Z,1.50
2017-09-19T14:26:01.586Z,1.97
2017-09-19T14:28:28.350Z,1.93
2017-09-19T14:30:55.698Z,1.97
2017-09-19T14:33:23.611Z,2.30
2017-09-19T14:35:50.369Z,1.70
2017-09-19T14:38:17.136Z,1.93
2017-09-19T14:40:45.698Z,1.77
2017-09-19T14:43:13.522Z,1.93
2017-09-19T14:45:40.327Z,1.90
2017-09-19T14:48:07.075Z,1.90
2017-09-19T14:50:33.810Z,2.63
2017-09-19T14:53:01.212Z,1.97
2017-09-19T14:55:27.986Z,1.70
2017-09-19T14:57:54.746Z,1.43
2017-09-19T15:00:21.564Z,1.53
2017-09-19T15:02:48.328Z,1.50
2017-09-19T15:05:15.071Z,1.70
2017-09-19T15:07:41.853Z,1.60
2017-09-19T15:10:08.639Z,1.50
2017-09-19T15:12:35.456Z,1.63
2017-09-19T15:15:02.827Z,24.63
2017-09-19T15:17:29.758Z,1.90
2017-09-19T15:19:56.530Z,2.00
2017-09-19T15:22:23.523Z,1.43
2017-09-19T15:24:50.346Z,8.80
2017-09-19T15:27:17.123Z,1.80
2017-09-19T15:29:43.916Z,2.10
2017-09-19T15:32:11.016Z,2.07
2017-09-19T15:34:38.527Z,1.67
2017-09-19T15:37:05.999Z,2.33
2017-09-19T15:39:32.800Z,1.83
2017-09-19T15:41:59.624Z,1.80
2017-09-19T15:44:26.432Z,1.53
2017-09-19T15:46:54.232Z,1.40
2017-09-19T15:49:20.991Z,1.70
2017-09-19T15:51:48.135Z,1.30
2017-09-19T15:54:14.980Z,1.87
2017-09-19T15:56:41.755Z,1.70
2017-09-19T15:59:08.545Z,1.63
2017-09-19T16:01:35.327Z,1.17
2017-09-19T16:04:02.092Z,1.70
2017-09-19T16:06:28.904Z,1.30
2017-09-19T16:08:55.662Z,1.17
2017-09-19T16:11:22.439Z,2.90
2017-09-19T16:13:49.230Z,1.40
2017-09-19T16:16:16.106Z,1.50
2017-09-19T16:18:42.853Z,1.73
2017-09-19T16:21:09.726Z,2.03
2017-09-19T16:23:36.486Z,1.80
2017-09-19T16:26:03.239Z,1.30
2017-09-19T16:28:30.020Z,1.97
2017-09-19T16:30:56.827Z,1.40
2017-09-19T16:33:23.584Z,1.60
2017-09-19T16:35:50.990Z,1.47
2017-09-19T16:38:17.753Z,1.30
2017-09-19T16:40:45.409Z,1.63
2017-09-19T16:43:14.914Z,1.83
2017-09-19T16:45:41.663Z,1.40
2017-09-19T16:48:08.417Z,1.90
2017-09-19T16:50:35.217Z,1.40
2017-09-19T16:53:01.988Z,1.47
2017-09-19T16:55:28.729Z,1.30
2017-09-19T16:57:56.077Z,1.70
2017-09-19T17:00:22.834Z,1.63
2017-09-19T17:02:49.611Z,1.43
2017-09-19T17:05:16.427Z,1.47
2017-09-19T17:07:43.187Z,1.60
2017-09-19T17:10:09.928Z,1.87
2017-09-19T17:12:37.048Z,2.53
2017-09-19T17:15:03.835Z,2.00
2017-09-19T17:17:30.587Z,1.90
2017-09-19T17:19:57.419Z,1.60
2017-09-19T17:22:25.237Z,1.30
2017-09-19T17:24:51.978Z,1.10
2017-09-19T17:27:18.756Z,2.70
2017-09-19T17:29:45.495Z,1.70
2017-09-19T17:32:12.235Z,1.70
2017-09-19T17:34:39.028Z,1.53
2017-09-19T17:37:05.790Z,1.70
2017-09-19T17:39:32.702Z,1.43
2017-09-19T17:41:59.506Z,1.50
2017-09-19T17:44:26.306Z,2.53
2017-09-19T17:46:53.076Z,1.53
2017-09-19T17:49:19.869Z,1.83
2017-09-19T17:51:46.698Z,2.00
2017-09-19T17:54:13.458Z,2.50
2017-09-19T17:56:40.240Z,1.80
2017-09-19T17:59:07.005Z,2.33
2017-09-19T18:01:34.126Z,1.90
2017-09-19T18:04:00.916Z,2.03
2017-09-19T18:06:27.928Z,2.33
2017-09-19T18:08:54.683Z,2.30
2017-09-19T18:11:21.506Z,1.97
2017-09-19T18:13:48.322Z,2.60
2017-09-19T18:16:15.076Z,2.60
2017-09-19T18:18:42.137Z,2.90
2017-09-19T18:21:08.953Z,2.50
2017-09-19T18:23:35.726Z,2.90
2017-09-19T18:26:02.818Z,2.85
2017-09-19T18:28:29.552Z,3.03
2017-09-19T18:30:56.308Z,2.90
2017-09-19T18:33:23.111Z,2.23
2017-09-19T18:35:49.856Z,2.80
2017-09-19T18:38:16.638Z,3.37
2017-09-19T18:40:43.970Z,2.83
2017-09-19T18:43:10.736Z,3.20
2017-09-19T18:45:37.499Z,2.80
2017-09-19T18:48:04.279Z,3.10
2017-09-19T18:50:31.091Z,3.10
2017-09-19T18:52:57.832Z,2.90
2017-09-19T18:55:24.635Z,3.00
2017-09-19T18:57:51.435Z,2.97
2017-09-19T19:00:18.198Z,2.80
2017-09-19T19:02:45.012Z,3.47
2017-09-19T19:05:12.410Z,4.27
2017-09-19T19:07:39.669Z,3.97
2017-09-19T19:10:06.439Z,4.10
2017-09-19T19:12:33.200Z,4.00
2017-09-19T19:14:59.967Z,4.50
2017-09-19T19:17:27.331Z,5.27
2017-09-19T19:19:54.077Z,4.10
2017-09-19T19:22:20.883Z,4.00
2017-09-19T19:24:47.684Z,4.15
2017-09-19T19:27:14.688Z,3.60
2017-09-19T19:29:41.465Z,3.90
2017-09-19T19:32:08.733Z,4.20
2017-09-19T19:34:35.509Z,3.60
2017-09-19T19:37:02.272Z,3.60
2017-09-19T19:39:29.114Z,3.10
2017-09-19T19:41:55.920Z,2.30
2017-09-19T19:44:22.672Z,2.43
2017-09-19T19:46:49.455Z,2.80
2017-09-19T19:49:16.375Z,3.30
2017-09-19T19:51:43.718Z,2.37
2017-09-19T19:54:10.511Z,15.13
2017-09-19T19:56:37.252Z,3.60
2017-09-19T19:59:04.026Z,2.77
2017-09-19T20:01:31.093Z,2.43
2017-09-19T20:03:57.873Z,2.53
2017-09-19T20:06:24.617Z,2.43
2017-09-19T20:08:51.432Z,2.20
2017-09-19T20:11:18.191Z,2.40
2017-09-19T20:13:44.945Z,2.20
2017-09-19T20:16:11.736Z,1.83
2017-09-19T20:18:38.854Z,2.00
2017-09-19T20:21:05.603Z,1.83
2017-09-19T20:23:32.406Z,2.00
2017-09-19T20:25:59.166Z,1.60
2017-09-19T20:28:25.938Z,2.43
2017-09-19T20:30:52.844Z,1.93
2017-09-19T20:33:19.591Z,1.90
2017-09-19T20:35:46.346Z,1.33
2017-09-19T20:38:13.124Z,3.50
2017-09-19T20:40:39.863Z,2.07
2017-09-19T20:43:06.629Z,2.00
2017-09-19T20:45:33.416Z,2.00
2017-09-19T20:48:00.186Z,2.17
2017-09-19T20:50:26.946Z,2.00
2017-09-19T20:52:53.736Z,1.70
2017-09-19T20:55:20.472Z,1.97
2017-09-19T20:57:47.832Z,2.20
2017-09-19T21:00:14.726Z,2.70
2017-09-19T21:02:41.078Z,1.80
2017-09-19T21:05:14.140Z,1.80
2017-09-19T21:07:46.753Z,2.70
2017-09-19T21:10:19.263Z,2.33
2017-09-19T21:12:51.874Z,1.80
2017-09-19T21:15:24.291Z,2.07
2017-09-19T21:17:56.617Z,2.17
2017-09-19T21:20:22.971Z,1.67
2017-09-19T21:22:49.795Z,1.87
2017-09-19T21:25:16.535Z,1.90
2017-09-19T21:27:43.294Z,1.80
2017-09-19T21:30:10.659Z,2.20
2017-09-19T21:32:37.421Z,1.70
2017-09-19T21:35:04.182Z,1.70
2017-09-19T21:37:30.956Z,1.80
2017-09-19T21:39:57.700Z,1.23
2017-09-19T21:42:24.443Z,1.70
2017-09-19T21:44:52.198Z,1.53
2017-09-19T21:47:18.944Z,1.90
2017-09-19T21:49:45.702Z,2.20
2017-09-19T21:52:12.492Z,2.00
2017-09-19T21:54:39.225Z,2.03
2017-09-19T21:57:05.965Z,1.50
2017-09-19T21:59:32.758Z,1.67
2017-09-19T22:01:59.527Z,1.73
2017-09-19T22:04:26.350Z,1.83
2017-09-19T22:06:53.132Z,1.73
2017-09-19T22:09:19.871Z,2.00
2017-09-19T22:11:46.639Z,2.47
2017-09-19T22:14:13.441Z,1.90
2017-09-19T22:16:40.797Z,1.67
2017-09-19T22:19:07.557Z,1.93
2017-09-19T22:21:34.327Z,1.77
2017-09-19T22:24:01.954Z,1.87
2017-09-19T22:26:29.458Z,2.10
2017-09-19T23:47:03.598Z,3.90
2017-09-19T23:49:30.343Z,4.10
2017-09-19T23:51:57.079Z,3.77
2017-09-19T23:54:23.862Z,4.80
2017-09-19T23:56:50.603Z,3.80
2017-09-19T23:59:17.367Z,3.40
